createdAt,value
2019-06-20T00:02:09.069Z,100847.84
2019-06-20T00:04:40.733Z,100848.70
2019-06-20T00:07:13.891Z,100854.52
2019-06-20T00:09:45.457Z,100860.16
2019-06-20T00:12:16.922Z,100864.27
2019-06-20T00:14:48.337Z,100865.11
2019-06-20T00:17:20.770Z,100862.61
2019-06-20T00:19:52.206Z,100866.77
2019-06-20T00:22:23.745Z,100862.08
2019-06-20T00:24:55.301Z,100860.41
2019-06-20T00:27:26.814Z,100852.30
2019-06-20T00:29:58.287Z,100855.26
2019-06-20T00:32:29.867Z,100855.53
2019-06-20T00:35:01.389Z,100860.23
2019-06-20T00:37:33.034Z,100854.75
2019-06-20T00:40:05.323Z,100861.85
2019-06-20T00:42:36.833Z,100866.13
2019-06-20T00:45:08.912Z,100867.19
2019-06-20T00:47:40.355Z,100871.75
2019-06-20T00:50:12.831Z,100866.73
2019-06-20T00:52:44.335Z,100868.33
2019-06-20T00:55:15.807Z,100864.02
2019-06-20T00:57:47.492Z,100860.63
2019-06-20T01:00:20.388Z,100861.23
2019-06-20T01:02:51.936Z,100860.63
2019-06-20T01:05:23.663Z,100856.14
2019-06-20T01:07:55.170Z,100851.51
2019-06-20T01:10:26.697Z,100853.41
2019-06-20T01:12:58.415Z,100854.95
2019-06-20T01:15:29.930Z,100850.66
2019-06-20T01:18:01.435Z,100852.73
2019-06-20T01:20:32.925Z,100855.88
2019-06-20T01:23:07.005Z,100854.79
2019-06-20T01:25:42.285Z,100863.31
2019-06-20T01:28:13.782Z,100859.70
2019-06-20T01:30:45.539Z,100862.38
2019-06-20T01:33:17.349Z,100858.96
2019-06-20T01:35:49.054Z,100849.66
2019-06-20T01:38:20.613Z,100840.47
2019-06-20T01:40:52.120Z,100843.08
2019-06-20T01:43:23.648Z,100840.66
2019-06-20T01:45:55.182Z,100839.20
2019-06-20T01:48:28.154Z,100840.80
2019-06-20T01:50:59.727Z,100846.97
2019-06-20T01:53:31.626Z,100839.38
2019-06-20T01:56:03.124Z,100844.56
2019-06-20T01:58:35.916Z,100846.97
2019-06-20T02:01:07.435Z,100840.09
2019-06-20T02:03:39.354Z,100846.53
2019-06-20T02:06:10.797Z,100847.77
2019-06-20T02:08:42.438Z,100851.58
2019-06-20T02:11:13.977Z,100850.66
2019-06-20T02:13:45.513Z,100845.91
2019-06-20T02:16:17.047Z,100848.91
2019-06-20T02:18:48.488Z,100851.67
2019-06-20T02:21:20.160Z,100852.94
2019-06-20T02:23:51.708Z,100849.11
2019-06-20T02:26:23.102Z,100856.98
2019-06-20T02:28:54.651Z,100861.39
2019-06-20T02:31:27.211Z,100852.07
2019-06-20T02:33:58.770Z,100849.99
2019-06-20T02:36:30.244Z,100848.05
2019-06-20T02:39:01.890Z,100854.30
2019-06-20T02:41:35.517Z,100852.07
2019-06-20T02:44:28.420Z,100850.73
2019-06-20T02:46:42.096Z,100855.98
2019-06-20T02:49:13.623Z,100854.14
2019-06-20T02:51:45.409Z,100851.81
2019-06-20T02:54:16.890Z,100853.96
2019-06-20T02:56:48.433Z,100859.14
2019-06-20T02:59:19.971Z,100855.43
2019-06-20T03:01:51.546Z,100864.05
2019-06-20T03:04:23.076Z,100866.73
2019-06-20T03:06:54.834Z,100870.42
2019-06-20T03:09:26.301Z,100871.56
2019-06-20T03:11:58.120Z,100873.90
2019-06-20T03:14:45.316Z,100866.23
2019-06-20T03:17:14.997Z,100870.53
2019-06-20T03:19:47.601Z,100875.06
2019-06-20T03:22:19.205Z,100876.40
2019-06-20T03:24:51.921Z,100868.13
2019-06-20T03:27:23.684Z,100877.80
2019-06-20T03:29:55.135Z,100877.27
2019-06-20T03:32:26.594Z,100878.14
2019-06-20T03:34:58.082Z,100867.33
2019-06-20T03:37:29.563Z,100872.58
2019-06-20T03:40:01.061Z,100879.76
2019-06-20T03:42:32.567Z,100875.53
2019-06-20T03:45:04.079Z,100883.05
2019-06-20T03:47:37.388Z,100885.39
2019-06-20T03:50:09.558Z,100885.25
2019-06-20T03:52:41.113Z,100890.50
2019-06-20T03:55:13.734Z,100889.88
2019-06-20T03:57:45.249Z,100896.75
2019-06-20T04:00:17.174Z,100895.79
2019-06-20T04:02:48.651Z,100901.49
2019-06-20T04:05:21.251Z,100902.23
2019-06-20T04:07:52.730Z,100902.24
2019-06-20T04:10:25.376Z,100908.67
2019-06-20T04:12:57.947Z,100904.69
2019-06-20T04:15:29.744Z,100906.95
2019-06-20T04:18:01.449Z,100908.05
2019-06-20T04:20:33.162Z,100911.41
2019-06-20T04:23:05.225Z,100911.05
2019-06-20T04:25:36.632Z,100906.67
2019-06-20T04:28:08.148Z,100905.86
2019-06-20T04:30:39.725Z,100910.27
2019-06-20T04:33:11.234Z,100910.73
2019-06-20T04:35:42.703Z,100906.99
2019-06-20T04:38:15.272Z,100904.03
2019-06-20T04:40:46.698Z,100905.27
2019-06-20T04:43:18.185Z,100910.98
2019-06-20T04:46:10.228Z,100914.90
2019-06-20T04:48:41.658Z,100907.63
2019-06-20T04:51:13.086Z,100908.55
2019-06-20T04:53:44.833Z,100919.94
2019-06-20T04:56:16.298Z,100915.84
2019-06-20T04:58:47.815Z,100913.24
2019-06-20T05:01:19.310Z,100913.92
2019-06-20T05:03:50.870Z,100921.45
2019-06-20T05:06:22.357Z,100923.09
2019-06-20T05:08:53.914Z,100916.22
2019-06-20T05:11:25.365Z,100921.58
2019-06-20T05:13:56.878Z,100925.91
2019-06-20T05:16:28.405Z,100926.81
2019-06-20T05:19:00.038Z,100928.91
2019-06-20T05:21:31.535Z,100932.24
2019-06-20T05:24:02.974Z,100929.44
2019-06-20T05:26:34.508Z,100927.63
2019-06-20T05:29:06.007Z,100927.99
2019-06-20T05:31:37.518Z,100920.86
2019-06-20T05:34:09.034Z,100918.25
2019-06-20T05:36:40.552Z,100928.65
2019-06-20T05:39:12.038Z,100931.87
2019-06-20T05:41:43.750Z,100942.02
2019-06-20T05:44:15.225Z,100940.58
2019-06-20T05:46:47.192Z,100938.48
2019-06-20T05:49:19.097Z,100931.13
2019-06-20T05:51:50.665Z,100933.97
2019-06-20T05:54:22.388Z,100938.71
2019-06-20T05:56:54.242Z,100940.80
2019-06-20T05:59:25.836Z,100951.64
2019-06-20T06:01:57.537Z,100945.41
2019-06-20T06:04:29.503Z,100952.81
2019-06-20T06:07:01.262Z,100947.64
2019-06-20T06:09:33.034Z,100949.08
2019-06-20T06:12:04.583Z,100947.87
2019-06-20T06:14:37.153Z,100954.73
2019-06-20T06:17:08.637Z,100954.34
2019-06-20T06:19:40.080Z,100958.60
2019-06-20T06:22:11.643Z,100953.56
2019-06-20T06:24:43.235Z,100957.84
2019-06-20T06:27:14.831Z,100954.38
2019-06-20T06:29:46.378Z,100960.23
2019-06-20T06:32:20.087Z,100953.77
2019-06-20T06:34:51.214Z,100955.27
2019-06-20T06:37:22.721Z,100955.33
2019-06-20T06:39:54.237Z,100957.94
2019-06-20T06:42:25.732Z,100960.84
2019-06-20T06:44:57.531Z,100965.30
2019-06-20T06:47:29.174Z,100972.61
2019-06-20T06:50:01.223Z,100974.66
2019-06-20T06:52:32.894Z,100976.67
2019-06-20T06:55:05.589Z,100978.60
2019-06-20T06:57:37.140Z,100976.74
2019-06-20T07:00:10.944Z,100968.77
2019-06-20T07:02:42.762Z,100979.14
2019-06-20T07:05:14.739Z,100976.63
2019-06-20T07:07:46.294Z,100973.72
2019-06-20T07:10:18.480Z,100976.89
2019-06-20T07:12:50.010Z,100983.56
2019-06-20T07:15:21.964Z,100982.44
2019-06-20T07:17:53.438Z,100984.02
2019-06-20T07:20:25.235Z,100982.26
2019-06-20T07:22:56.932Z,100991.84
2019-06-20T07:25:29.982Z,100984.91
2019-06-20T07:28:03.618Z,100996.20
2019-06-20T07:30:36.244Z,100993.25
2019-06-20T07:33:07.752Z,100994.72
2019-06-20T07:35:41.838Z,101002.42
2019-06-20T07:38:12.712Z,101000.41
2019-06-20T07:40:45.526Z,101004.09
2019-06-20T07:43:17.090Z,101002.17
2019-06-20T07:46:02.096Z,101008.66
2019-06-20T07:48:21.899Z,101000.95
2019-06-20T07:50:53.720Z,101016.41
2019-06-20T07:53:25.321Z,101028.39
2019-06-20T07:55:56.936Z,101017.08
2019-06-20T07:58:29.493Z,101016.75
2019-06-20T08:01:01.031Z,101031.36
2019-06-20T08:03:32.574Z,101024.20
2019-06-20T08:06:04.531Z,101026.69
2019-06-20T08:08:36.282Z,101023.63
2019-06-20T08:11:08.421Z,101017.63
2019-06-20T08:13:40.265Z,101020.70
2019-06-20T08:16:11.814Z,101027.97
2019-06-20T08:18:43.325Z,101040.91
2019-06-20T08:21:15.004Z,101034.43
2019-06-20T08:23:46.512Z,101033.98
2019-06-20T08:26:18.108Z,101036.71
2019-06-20T08:28:49.636Z,101036.83
2019-06-20T08:31:21.188Z,101039.63
2019-06-20T08:33:52.719Z,101027.50
2019-06-20T08:36:24.358Z,101036.22
2019-06-20T08:38:57.436Z,101033.69
2019-06-20T08:41:29.552Z,101044.41
2019-06-20T08:44:01.785Z,101050.38
2019-06-20T08:46:33.539Z,101037.50
2019-06-20T08:49:05.826Z,101038.41
2019-06-20T08:51:37.782Z,101035.52
2019-06-20T08:54:09.576Z,101042.27
2019-06-20T08:56:43.694Z,101019.80
2019-06-20T08:59:24.421Z,101023.69
2019-06-20T09:01:48.545Z,101033.79
2019-06-20T09:04:22.478Z,101033.99
2019-06-20T09:06:55.741Z,101033.50
2019-06-20T09:09:27.222Z,101034.55
2019-06-20T09:12:00.292Z,101030.31
2019-06-20T09:14:32.116Z,101037.70
2019-06-20T09:17:03.683Z,101043.84
2019-06-20T09:19:35.300Z,101053.36
2019-06-20T09:22:07.229Z,101053.21
2019-06-20T09:24:38.869Z,101052.98
2019-06-20T09:27:10.790Z,101050.70
2019-06-20T09:29:42.373Z,101058.38
2019-06-20T09:32:13.968Z,101061.92
2019-06-20T09:34:45.525Z,101062.44
2019-06-20T09:37:17.276Z,101070.03
2019-06-20T09:39:51.599Z,101076.06
2019-06-20T09:42:22.907Z,101076.30
2019-06-20T09:44:54.552Z,101081.11
2019-06-20T09:47:26.560Z,101073.77
2019-06-20T09:49:59.028Z,101082.14
2019-06-20T09:52:30.612Z,101076.91
2019-06-20T09:55:02.205Z,101096.81
2019-06-20T09:57:33.777Z,101092.36
2019-06-20T10:00:10.370Z,101105.16
2019-06-20T10:02:40.967Z,101105.84
2019-06-20T10:05:13.438Z,101106.72
2019-06-20T10:07:45.558Z,101109.55
2019-06-20T10:10:18.566Z,101105.52
2019-06-20T10:12:50.081Z,101120.55
2019-06-20T10:15:25.506Z,101122.78
2019-06-20T10:17:57.007Z,101130.20
2019-06-20T10:20:28.961Z,101129.96
2019-06-20T10:23:00.545Z,101137.28
2019-06-20T10:25:32.020Z,101134.91
2019-06-20T10:28:03.732Z,101143.05
2019-06-20T10:30:35.234Z,101140.25
2019-06-20T10:33:06.829Z,101149.80
2019-06-20T10:35:40.471Z,101150.69
2019-06-20T10:38:12.106Z,101158.41
2019-06-20T10:40:46.055Z,101158.03
2019-06-20T10:43:17.028Z,101158.33
2019-06-20T10:45:49.450Z,101169.12
2019-06-20T10:48:21.091Z,101168.80
2019-06-20T10:50:52.765Z,101170.14
2019-06-20T10:53:24.450Z,101179.55
2019-06-20T10:55:56.185Z,101176.16
2019-06-20T10:58:27.959Z,101184.36
2019-06-20T11:00:59.498Z,101186.77
2019-06-20T11:03:31.069Z,101194.48
2019-06-20T11:06:02.648Z,101201.23
2019-06-20T11:08:34.258Z,101203.51
2019-06-20T11:11:05.810Z,101214.86
2019-06-20T11:13:38.996Z,101209.16
2019-06-20T11:16:11.026Z,101195.27
2019-06-20T11:18:43.618Z,101206.20
2019-06-20T11:21:15.328Z,101213.76
2019-06-20T11:23:50.335Z,101216.46
2019-06-20T11:26:21.883Z,101210.08
2019-06-20T11:28:55.829Z,101219.70
2019-06-20T11:31:27.426Z,101214.80
2019-06-20T11:33:59.003Z,101217.48
2019-06-20T11:36:30.505Z,101211.28
2019-06-20T11:39:03.708Z,101215.63
2019-06-20T11:41:38.002Z,101212.56
2019-06-20T11:44:09.622Z,101214.56
2019-06-20T11:46:41.090Z,101216.95
2019-06-20T11:49:14.302Z,101218.62
2019-06-20T11:51:45.799Z,101224.84
2019-06-20T11:54:17.849Z,101232.09
2019-06-20T11:56:49.345Z,101227.23
2019-06-20T11:59:21.287Z,101231.75
2019-06-20T12:01:52.985Z,101242.47
2019-06-20T12:04:24.564Z,101229.98
2019-06-20T12:06:56.079Z,101235.78
2019-06-20T12:09:27.504Z,101239.98
2019-06-20T12:11:58.987Z,101244.88
2019-06-20T12:14:30.772Z,101240.23
2019-06-20T12:17:02.276Z,101231.42
2019-06-20T12:19:34.706Z,101247.88
2019-06-20T12:22:06.395Z,101243.31
2019-06-20T12:24:40.011Z,101247.06
2019-06-20T12:27:12.658Z,101244.02
2019-06-20T12:29:46.428Z,101252.56
2019-06-20T12:32:21.227Z,101250.40
2019-06-20T12:34:52.782Z,101255.48
2019-06-20T12:37:24.472Z,101243.52
2019-06-20T12:39:56.234Z,101245.84
2019-06-20T12:42:27.734Z,101245.69
2019-06-20T12:44:59.216Z,101244.18
2019-06-20T12:47:30.628Z,101238.86
2019-06-20T12:50:02.156Z,101242.46
2019-06-20T12:52:33.655Z,101248.48
2019-06-20T12:55:05.525Z,101253.95
2019-06-20T12:57:38.469Z,101248.38
2019-06-20T13:00:11.401Z,101249.72
2019-06-20T13:02:43.744Z,101255.88
2019-06-20T13:05:17.599Z,101252.95
2019-06-20T13:07:50.359Z,101257.44
2019-06-20T13:10:23.693Z,101246.64
2019-06-20T13:12:55.213Z,101243.39
2019-06-20T13:15:27.146Z,101248.24
2019-06-20T13:17:59.074Z,101239.50
2019-06-20T13:20:32.970Z,101245.92
2019-06-20T13:23:04.595Z,101248.80
2019-06-20T13:25:36.226Z,101253.30
2019-06-20T13:28:07.779Z,101254.03
2019-06-20T13:30:46.869Z,101258.38
2019-06-20T13:33:15.767Z,101262.02
2019-06-20T13:35:48.634Z,101260.52
2019-06-20T13:38:21.607Z,101263.11
2019-06-20T13:40:53.228Z,101258.00
2019-06-20T13:43:24.713Z,101265.35
2019-06-20T13:45:56.405Z,101264.29
2019-06-20T13:48:27.921Z,101266.90
2019-06-20T13:50:59.616Z,101267.03
2019-06-20T13:53:31.215Z,101272.36
2019-06-20T13:56:04.343Z,101271.50
2019-06-20T13:58:35.855Z,101272.98
2019-06-20T14:01:07.363Z,101279.09
2019-06-20T14:03:40.513Z,101274.70
2019-06-20T14:06:12.166Z,101280.70
2019-06-20T14:08:44.796Z,101273.17
2019-06-20T14:11:17.538Z,101269.97
2019-06-20T14:13:52.600Z,101276.88
2019-06-20T14:16:22.701Z,101278.73
2019-06-20T14:18:54.202Z,101281.66
2019-06-20T14:21:25.955Z,101279.73
2019-06-20T14:23:57.647Z,101284.23
2019-06-20T14:26:29.195Z,101279.28
2019-06-20T14:29:00.880Z,101276.02
2019-06-20T14:31:33.006Z,101275.88
2019-06-20T14:34:04.851Z,101288.06
2019-06-20T14:36:36.541Z,101281.06
2019-06-20T14:39:09.940Z,101289.92
2019-06-20T14:41:42.077Z,101282.49
2019-06-20T14:44:14.803Z,101283.09
2019-06-20T14:46:46.396Z,101276.75
2019-06-20T14:49:18.213Z,101291.04
2019-06-20T14:51:50.160Z,101297.84
2019-06-20T14:54:21.762Z,101299.39
2019-06-20T14:56:53.938Z,101300.91
2019-06-20T14:59:25.519Z,101300.75
2019-06-20T15:01:56.938Z,101304.53
2019-06-20T15:04:28.744Z,101307.66
2019-06-20T15:07:01.924Z,101312.36
2019-06-20T15:09:33.470Z,101321.34
2019-06-20T15:12:05.009Z,101319.72
2019-06-20T15:14:38.371Z,101320.28
2019-06-20T15:17:10.863Z,101323.38
2019-06-20T15:19:42.371Z,101322.16
2019-06-20T15:22:13.909Z,101318.05
2019-06-20T15:24:48.509Z,101326.08
2019-06-20T15:27:18.850Z,101326.80
2019-06-20T15:29:52.213Z,101328.03
2019-06-20T15:32:25.714Z,101330.84
2019-06-20T15:34:57.356Z,101327.72
2019-06-20T15:37:28.971Z,101334.06
2019-06-20T15:40:00.481Z,101336.08
2019-06-20T15:42:32.095Z,101326.86
2019-06-20T15:45:04.570Z,101329.38
2019-06-20T15:47:37.295Z,101334.19
2019-06-20T15:50:09.366Z,101335.16
2019-06-20T15:52:45.177Z,101329.66
2019-06-20T15:55:20.010Z,101335.61
2019-06-20T15:57:54.063Z,101335.91
2019-06-20T16:00:24.838Z,101335.00
2019-06-20T16:03:09.598Z,101329.63
2019-06-20T16:05:30.693Z,101329.03
2019-06-20T16:08:04.284Z,101335.45
2019-06-20T16:10:35.761Z,101336.66
2019-06-20T16:13:07.263Z,101335.19
2019-06-20T16:15:38.898Z,101336.64
2019-06-20T16:18:12.570Z,101340.61
2019-06-20T16:20:44.179Z,101344.75
2019-06-20T16:23:15.931Z,101345.89
2019-06-20T16:25:47.684Z,101354.70
2019-06-20T16:28:19.520Z,101348.37
2019-06-20T16:30:51.010Z,101346.95
2019-06-20T16:33:25.460Z,101352.28
2019-06-20T16:35:56.797Z,101347.42
2019-06-20T16:38:28.478Z,101347.42
2019-06-20T16:41:00.043Z,101340.88
2019-06-20T16:43:31.713Z,101344.94
2019-06-20T16:46:04.071Z,101339.23
2019-06-20T16:48:35.586Z,101341.85
2019-06-20T16:51:07.087Z,101347.62
2019-06-20T16:53:38.583Z,101353.92
2019-06-20T16:56:10.095Z,101349.99
2019-06-20T16:58:41.932Z,101346.05
2019-06-20T17:01:15.404Z,101352.53
2019-06-20T17:03:46.899Z,101347.15
2019-06-20T17:06:18.546Z,101347.66
2019-06-20T17:08:50.000Z,101355.23
2019-06-20T17:11:21.537Z,101353.67
2019-06-20T17:13:53.074Z,101351.59
2019-06-20T17:16:25.215Z,101354.28
2019-06-20T17:18:57.601Z,101358.92
2019-06-20T17:21:29.153Z,101364.16
2019-06-20T17:24:00.786Z,101365.27
2019-06-20T17:26:32.492Z,101363.28
2019-06-20T17:29:04.250Z,101360.38
2019-06-20T17:31:35.803Z,101371.27
2019-06-20T17:34:07.875Z,101374.73
2019-06-20T17:36:46.660Z,101375.70
2019-06-20T17:39:18.178Z,101385.45
2019-06-20T17:41:55.192Z,101382.16
2019-06-20T17:44:23.079Z,101387.95
2019-06-20T17:46:54.616Z,101384.74
2019-06-20T17:49:26.246Z,101389.23
2019-06-20T17:51:57.800Z,101384.68
2019-06-20T17:54:29.207Z,101385.80
2019-06-20T17:57:00.874Z,101388.42
2019-06-20T17:59:32.471Z,101389.08
2019-06-20T18:02:04.060Z,101393.73
2019-06-20T18:04:35.835Z,101397.83
2019-06-20T18:07:07.407Z,101391.27
2019-06-20T18:09:38.910Z,101395.00
2019-06-20T18:12:12.176Z,101398.52
2019-06-20T18:14:44.062Z,101404.47
2019-06-20T18:17:15.809Z,101405.07
2019-06-20T18:19:47.345Z,101408.50
2019-06-20T18:22:18.863Z,101400.66
2019-06-20T18:24:50.387Z,101406.25
2019-06-20T18:27:21.955Z,101407.70
2019-06-20T18:29:53.434Z,101410.75
2019-06-20T18:32:26.082Z,101414.50
2019-06-20T18:35:01.936Z,101413.13
2019-06-20T18:37:31.969Z,101410.38
2019-06-20T18:40:04.038Z,101416.00
2019-06-20T18:42:36.206Z,101418.59
2019-06-20T18:45:09.278Z,101418.95
2019-06-20T18:47:40.914Z,101418.53
2019-06-20T18:50:16.130Z,101417.83
2019-06-20T18:52:52.336Z,101419.93
2019-06-20T18:55:21.197Z,101425.97
2019-06-20T18:57:52.905Z,101423.34
2019-06-20T19:00:34.585Z,101434.25
2019-06-20T19:03:00.162Z,101428.84
2019-06-20T19:05:32.706Z,101433.11
2019-06-20T19:08:04.269Z,101430.63
2019-06-20T19:10:35.876Z,101426.93
2019-06-20T19:13:07.610Z,101426.69
2019-06-20T19:15:39.224Z,101433.47
2019-06-20T19:18:10.862Z,101436.72
2019-06-20T19:20:42.796Z,101436.30
2019-06-20T19:23:14.728Z,101439.55
2019-06-20T19:25:46.362Z,101440.89
2019-06-20T19:28:17.931Z,101443.84
2019-06-20T19:30:52.879Z,101442.61
2019-06-20T19:33:26.408Z,101446.89
2019-06-20T19:35:57.988Z,101443.78
2019-06-20T19:38:29.770Z,101449.00
2019-06-20T19:41:01.363Z,101450.03
2019-06-20T19:43:32.903Z,101448.75
2019-06-20T19:46:04.616Z,101453.66
2019-06-20T19:48:36.956Z,101454.77
2019-06-20T19:51:08.858Z,101457.56
2019-06-20T19:53:45.754Z,101457.07
2019-06-20T19:56:15.419Z,101461.09
2019-06-20T19:58:47.349Z,101465.13
2019-06-20T20:01:18.937Z,101471.84
2019-06-20T20:03:50.538Z,101470.20
2019-06-20T20:06:22.494Z,101473.48
2019-06-20T20:08:54.133Z,101476.27
2019-06-20T20:11:25.687Z,101476.00
2019-06-20T20:13:58.408Z,101480.86
2019-06-20T20:16:29.920Z,101486.73
2019-06-20T20:19:01.412Z,101480.10
2019-06-20T20:21:33.174Z,101486.36
2019-06-20T20:24:04.754Z,101490.05
2019-06-20T20:26:36.888Z,101483.80
2019-06-20T20:29:08.461Z,101491.55
2019-06-20T20:31:40.016Z,101490.64
2019-06-20T20:34:12.020Z,101495.12
2019-06-20T20:36:43.915Z,101495.17
2019-06-20T20:39:17.057Z,101500.61
2019-06-20T20:41:50.748Z,101499.77
2019-06-20T20:44:23.227Z,101503.95
2019-06-20T20:46:54.822Z,101503.14
2019-06-20T20:49:26.392Z,101499.62
2019-06-20T20:51:57.846Z,101494.77
2019-06-20T20:54:29.380Z,101497.44
2019-06-20T20:57:01.063Z,101495.83
2019-06-20T20:59:33.697Z,101495.38
2019-06-20T21:02:07.288Z,101500.35
2019-06-20T21:04:39.463Z,101495.09
2019-06-20T21:07:11.053Z,101501.80
2019-06-20T21:09:42.575Z,101499.16
2019-06-20T21:12:14.925Z,101506.39
2019-06-20T21:14:47.416Z,101505.66
2019-06-20T21:17:19.873Z,101502.09
2019-06-20T21:19:51.465Z,101503.59
2019-06-20T21:22:23.019Z,101506.83
2019-06-20T21:24:54.480Z,101510.50
2019-06-20T21:27:26.047Z,101514.58
2019-06-20T21:29:57.615Z,101515.08
2019-06-20T21:32:29.156Z,101515.19
2019-06-20T21:35:00.900Z,101519.20
2019-06-20T21:37:33.653Z,101519.70
2019-06-20T21:40:05.577Z,101522.45
2019-06-20T21:42:37.417Z,101524.39
2019-06-20T21:45:10.827Z,101528.06
2019-06-20T21:47:42.389Z,101529.86
2019-06-20T21:50:14.298Z,101528.56
2019-06-20T21:52:45.919Z,101529.91
2019-06-20T21:55:17.802Z,101525.50
2019-06-20T21:57:49.217Z,101529.56
2019-06-20T22:00:30.575Z,101530.95
2019-06-20T22:03:03.674Z,101531.00
2019-06-20T22:05:35.226Z,101532.83
2019-06-20T22:08:07.415Z,101536.37
2019-06-20T22:10:40.083Z,101537.72
2019-06-20T22:13:11.706Z,101533.84
2019-06-20T22:15:43.406Z,101532.36
2019-06-20T22:18:15.264Z,101530.53
2019-06-20T22:20:46.822Z,101535.48
2019-06-20T22:23:18.327Z,101536.58
2019-06-20T22:25:49.950Z,101534.05
2019-06-20T22:28:21.949Z,101534.00
2019-06-20T22:30:55.643Z,101533.50
2019-06-20T22:33:27.257Z,101537.47
2019-06-20T22:35:58.731Z,101531.13
2019-06-20T22:38:30.136Z,101536.09
2019-06-20T22:41:01.763Z,101536.53
2019-06-20T22:43:33.244Z,101528.85
2019-06-20T22:46:04.852Z,101533.76
2019-06-20T22:48:39.013Z,101532.37
2019-06-20T22:51:13.685Z,101529.69
2019-06-20T22:53:43.733Z,101523.98
2019-06-20T22:56:15.188Z,101526.11
2019-06-20T22:58:46.654Z,101532.36
2019-06-20T23:01:18.076Z,101528.30
2019-06-20T23:03:49.540Z,101533.70
2019-06-20T23:06:21.025Z,101532.41
2019-06-20T23:08:52.506Z,101532.41
2019-06-20T23:11:23.991Z,101530.62
2019-06-20T23:13:55.782Z,101530.67
2019-06-20T23:16:27.266Z,101531.17
2019-06-20T23:18:58.723Z,101537.97
2019-06-20T23:21:30.187Z,101537.12
2019-06-20T23:24:01.632Z,101538.07
2019-06-20T23:26:52.281Z,101540.80
2019-06-20T23:29:23.789Z,101219.41
2019-06-20T23:31:56.158Z,101542.22
2019-06-20T23:34:27.658Z,101543.25
2019-06-20T23:37:12.221Z,101548.80
2019-06-20T23:39:32.379Z,101545.72
2019-06-20T23:42:04.817Z,101543.94
2019-06-20T23:44:36.305Z,101544.78
2019-06-20T23:47:08.286Z,101546.63
2019-06-20T23:49:39.858Z,101548.45
2019-06-20T23:52:16.185Z,101549.34
2019-06-20T23:54:47.808Z,101549.25
2019-06-20T23:57:19.633Z,101551.92
2019-06-20T23:59:51.173Z,101551.42
